Plainville, Massachusetts
Current Conditions -  °F | °C
As of 12:15 PM on Thursday 30 Oct 2014 (Local Time) from KSFZ Reporting Station
Clear Clear  
Wind Chill: 57°   Ceiling: Unl
Heat Index: 57°   Visibility: 10mi
Dew Point: 36°   Wind: 13mph
Humidity: 44%   Direction: 270°W
Pressure: 29.93"   Gusts: 18mph
Location:  42°N, 71.33°W
Report Text: KSFZ 301615Z 27011G16KT 240V300 10SM CLR 14/02 A2993 RMK AO1
Loading
Personal Weather Stations






























Interactive Weather Map
Tropical Storm Tracking
New forecast layout! Learn more

10-Day Weather Forecast

Advertisements
Track Severe Weather on mobile